Time;durP1;ratioP1;P1;durP2;ratioP2;P2;SDS_P1;SDS_P2;PMS_P1;PMS_P2;Temp;Humidity;BMP_temperature;BMP_pressure;BME280_temperature;BME280_humidity;BME280_pressure;Samples;Min_cycle;Max_cycle;Signal;HPM_P1;HPM_P2
2022/01/10 00:01:28;;;;;;;25.67;7.40;;;2.70;99.90;;;;;;5081273;28;20048;-70
2022/01/10 00:03:55;;;;;;;26.15;7.05;;;2.70;99.90;;;;;;5089816;28;20431;-70
2022/01/10 00:06:20;;;;;;;22.35;8.05;;;3.20;99.90;;;;;;5083341;28;20039;-70
2022/01/10 00:08:46;;;;;;;20.00;6.72;;;2.70;99.90;;;;;;5086176;28;20391;-70
2022/01/10 00:11:12;;;;;;;19.27;6.20;;;2.70;99.90;;;;;;5086897;28;20040;-70
2022/01/10 00:13:37;;;;;;;26.85;6.97;;;2.70;99.90;;;;;;5082022;28;20047;-70
2022/01/10 00:16:03;;;;;;;26.13;6.78;;;2.60;99.90;;;;;;5069993;28;20031;-70
2022/01/10 00:18:29;;;;;;;23.13;6.78;;;2.60;99.90;;;;;;5085277;28;20505;-70
2022/01/10 00:20:54;;;;;;;24.70;7.53;;;2.60;99.90;;;;;;5066099;28;20152;-70
2022/01/10 00:23:20;;;;;;;23.50;6.50;;;2.60;99.90;;;;;;5070197;28;20040;-70
2022/01/10 00:25:46;;;;;;;24.45;8.88;;;2.50;99.90;;;;;;5091601;28;20039;-70
2022/01/10 00:28:12;;;;;;;30.15;7.15;;;2.50;99.90;;;;;;5083570;28;20032;-70
2022/01/10 00:30:37;;;;;;;20.98;6.90;;;2.40;99.90;;;;;;5089667;28;20043;-70
2022/01/10 00:33:03;;;;;;;18.77;6.60;;;2.40;99.90;;;;;;5085815;28;20061;-70
2022/01/10 00:35:29;;;;;;;25.40;6.80;;;2.40;99.90;;;;;;5070985;28;20092;-70
2022/01/10 00:37:55;;;;;;;24.17;7.40;;;2.30;99.90;;;;;;5086303;28;20079;-70
2022/01/10 00:40:21;;;;;;;23.55;7.30;;;2.30;99.90;;;;;;5085594;28;20461;-70
2022/01/10 00:42:54;;;;;;;19.90;7.13;;;2.20;99.90;;;;;;5086086;28;20040;-70
2022/01/10 00:45:25;;;;;;;29.13;7.40;;;2.20;99.90;;;;;;5088097;28;20038;-70
2022/01/10 00:47:55;;;;;;;23.85;7.32;;;2.20;99.90;;;;;;5084488;28;20067;-70
2022/01/10 00:50:24;;;;;;;24.40;8.43;;;2.10;99.90;;;;;;5088502;28;20090;-70
2022/01/10 00:52:50;;;;;;;26.40;8.05;;;2.30;99.90;;;;;;5089965;28;20106;-70
2022/01/10 00:55:16;;;;;;;24.17;7.93;;;2.20;99.90;;;;;;5090963;28;20048;-70
2022/01/10 00:57:42;;;;;;;25.60;7.35;;;2.10;99.90;;;;;;5071845;28;20061;-70
2022/01/10 01:00:10;;;;;;;22.80;6.72;;;2.10;99.90;;;;;;5088904;28;20386;-70
2022/01/10 01:02:36;;;;;;;27.52;7.22;;;2.10;99.90;;;;;;5084547;28;20028;-73
2022/01/10 01:05:06;;;;;;;22.92;7.15;;;2.10;99.90;;;;;;5084096;28;20369;-71
2022/01/10 01:07:33;;;;;;;21.23;7.63;;;2.10;99.90;;;;;;5084077;28;20031;-70
2022/01/10 01:10:20;;;;;;;26.52;7.20;;;2.00;99.90;;;;;;5064604;28;20039;-70
2022/01/10 01:15:47;;;;;;;25.50;7.18;;;2.00;99.90;;;;;;5057875;28;20036;-70
2022/01/10 01:18:21;;;;;;;32.08;9.18;;;2.00;99.90;;;;;;5086535;28;20084;-70
2022/01/10 01:24:01;;;;;;;32.58;8.48;;;2.00;99.90;;;;;;5068568;28;20251;-70
2022/01/10 01:26:40;;;;;;;25.23;7.90;;;1.90;99.90;;;;;;5008109;28;20045;-70
2022/01/10 01:29:09;;;;;;;25.60;7.38;;;1.80;99.90;;;;;;5022508;28;20038;-71
2022/01/10 01:31:36;;;;;;;31.30;8.00;;;1.90;99.90;;;;;;5048858;28;20044;-70
2022/01/10 01:34:02;;;;;;;29.92;8.27;;;1.80;99.90;;;;;;5085336;28;20035;-70
2022/01/10 01:36:30;;;;;;;25.52;7.80;;;1.80;99.90;;;;;;5082579;28;20119;-70
2022/01/10 01:38:56;;;;;;;29.38;8.63;;;1.80;99.90;;;;;;5085706;28;20050;-70
2022/01/10 01:43:49;;;;;;;30.05;8.77;;;1.70;99.90;;;;;;5084982;28;20586;-69
2022/01/10 01:46:16;;;;;;;26.05;8.10;;;1.70;99.90;;;;;;5086410;28;20055;-70
2022/01/10 01:48:42;;;;;;;25.75;8.73;;;1.70;99.90;;;;;;5085575;28;20079;-70
2022/01/10 01:51:07;;;;;;;28.05;9.57;;;1.70;99.90;;;;;;5087297;28;20079;-70
2022/01/10 01:53:36;;;;;;;28.90;9.50;;;2.00;99.90;;;;;;5089074;28;20086;-70
2022/01/10 01:56:04;;;;;;;24.63;8.85;;;1.70;99.90;;;;;;5087007;28;20043;-70
2022/01/10 01:58:30;;;;;;;25.20;8.32;;;1.70;99.90;;;;;;5086479;28;20417;-70
2022/01/10 02:00:56;;;;;;;30.55;8.65;;;1.70;99.90;;;;;;5083265;28;20082;-70
2022/01/10 02:03:22;;;;;;;26.75;8.82;;;1.70;99.90;;;;;;5090581;28;20414;-70
2022/01/10 02:05:47;;;;;;;28.48;8.38;;;1.70;99.90;;;;;;5071857;28;20064;-70
2022/01/10 02:08:13;;;;;;;25.45;7.95;;;1.70;99.90;;;;;;5086674;28;20077;-70
2022/01/10 02:10:39;;;;;;;21.30;7.68;;;1.60;99.90;;;;;;5068192;28;20802;-70
2022/01/10 02:13:05;;;;;;;27.50;8.48;;;1.60;99.90;;;;;;5073436;28;20070;-70
2022/01/10 02:15:41;;;;;;;21.60;8.25;;;1.60;99.90;;;;;;5077619;28;20074;-70
2022/01/10 02:18:07;;;;;;;30.67;9.35;;;1.60;99.90;;;;;;5085104;28;20035;-70
2022/01/10 02:20:33;;;;;;;28.08;10.73;;;1.60;99.90;;;;;;5074335;28;20145;-70
2022/01/10 02:22:59;;;;;;;29.92;10.50;;;1.60;99.90;;;;;;5074325;28;20036;-70
2022/01/10 02:25:25;;;;;;;31.52;9.05;;;2.00;99.90;;;;;;5091001;28;20040;-70
2022/01/10 02:27:51;;;;;;;22.00;8.68;;;1.60;99.90;;;;;;5091051;28;20380;-70
2022/01/10 02:30:17;;;;;;;32.40;8.38;;;1.60;99.90;;;;;;5072950;28;20040;-70
2022/01/10 02:32:44;;;;;;;29.08;9.40;;;1.60;99.90;;;;;;5088492;28;20039;-70
2022/01/10 02:35:27;;;;;;;32.28;9.23;;;1.50;99.90;;;;;;5088890;28;20100;-70
2022/01/10 02:37:54;;;;;;;34.95;8.98;;;1.50;99.90;;;;;;5090129;28;20044;-70
2022/01/10 02:40:22;;;;;;;31.10;8.60;;;1.40;99.90;;;;;;5088025;28;20036;-70
2022/01/10 02:42:48;;;;;;;33.05;9.93;;;1.90;99.90;;;;;;5087569;28;20036;-70
2022/01/10 02:45:15;;;;;;;26.60;10.02;;;1.40;99.90;;;;;;5084696;28;20584;-70
2022/01/10 02:47:41;;;;;;;28.85;10.60;;;1.30;99.90;;;;;;5083352;28;20031;-70
2022/01/10 02:50:07;;;;;;;35.53;10.73;;;1.30;99.90;;;;;;5056306;28;20055;-70
2022/01/10 02:52:37;;;;;;;24.77;10.40;;;1.40;99.90;;;;;;5092155;28;20040;-70
2022/01/10 02:55:04;;;;;;;32.13;11.63;;;1.30;99.90;;;;;;5091825;28;20096;-70
2022/01/10 02:57:31;;;;;;;26.83;10.68;;;1.40;99.90;;;;;;5087719;28;20491;-70
2022/01/10 02:59:59;;;;;;;32.50;12.48;;;1.30;99.90;;;;;;5091608;28;20387;-70
2022/01/10 03:02:29;;;;;;;35.42;11.32;;;1.30;99.90;;;;;;5087602;28;20027;-70
2022/01/10 03:04:55;;;;;;;32.53;11.63;;;1.30;99.90;;;;;;5088524;28;20039;-70
2022/01/10 03:07:24;;;;;;;45.88;13.55;;;1.30;99.90;;;;;;5085675;28;20985;-70
2022/01/10 03:09:50;;;;;;;40.83;11.65;;;1.30;99.90;;;;;;5070409;28;20071;-70
2022/01/10 03:12:16;;;;;;;34.20;12.65;;;1.30;99.90;;;;;;5074781;28;20047;-70
2022/01/10 03:14:43;;;;;;;35.97;13.13;;;1.30;99.90;;;;;;5091357;28;20403;-70
2022/01/10 03:17:10;;;;;;;43.63;12.13;;;1.20;99.90;;;;;;5078384;28;20410;-70
2022/01/10 03:19:36;;;;;;;41.13;12.10;;;1.20;99.90;;;;;;5041495;28;20044;-70
2022/01/10 03:22:03;;;;;;;40.33;13.57;;;1.20;99.90;;;;;;5063855;28;20053;-70
2022/01/10 03:24:29;;;;;;;38.15;13.90;;;1.20;99.90;;;;;;5089175;28;20180;-70
2022/01/10 03:26:55;;;;;;;30.80;12.02;;;1.20;99.90;;;;;;5058470;28;20031;-70
2022/01/10 03:29:21;;;;;;;40.05;14.43;;;1.10;99.90;;;;;;5088739;28;22729;-70
2022/01/10 03:31:47;;;;;;;36.13;14.50;;;1.10;99.90;;;;;;5072370;28;20043;-70
2022/01/10 03:34:13;;;;;;;40.88;13.88;;;1.10;99.90;;;;;;5083779;28;20052;-70
2022/01/10 03:36:40;;;;;;;44.63;13.18;;;1.10;99.90;;;;;;5083322;28;20105;-70
2022/01/10 03:39:06;;;;;;;44.75;13.35;;;1.10;99.90;;;;;;5073186;28;20116;-70
2022/01/10 03:41:32;;;;;;;34.85;13.52;;;1.00;99.90;;;;;;5086554;28;20616;-70
2022/01/10 03:43:58;;;;;;;36.95;13.45;;;1.10;99.90;;;;;;5073463;28;20042;-70
2022/01/10 03:46:23;;;;;;;39.00;14.38;;;1.00;99.90;;;;;;5067591;28;20035;-70
2022/01/10 03:48:49;;;;;;;37.60;14.00;;;1.60;99.90;;;;;;5090290;28;20032;-70
2022/01/10 03:51:16;;;;;;;40.28;14.40;;;1.00;99.90;;;;;;5088114;28;20055;-70
2022/01/10 03:53:41;;;;;;;40.42;14.35;;;1.00;99.90;;;;;;5089119;28;20624;-70
2022/01/10 03:56:08;;;;;;;45.47;15.27;;;1.00;99.90;;;;;;5105365;28;20533;-70
2022/01/10 03:58:34;;;;;;;41.67;14.25;;;1.10;99.90;;;;;;5081945;28;20093;-70
2022/01/10 04:01:01;;;;;;;41.20;16.40;;;1.30;99.90;;;;;;5086148;28;20044;-70
2022/01/10 04:03:27;;;;;;;49.08;15.95;;;1.10;99.90;;;;;;5072070;28;20518;-70
2022/01/10 04:05:53;;;;;;;39.45;14.68;;;1.10;99.90;;;;;;5087201;28;20050;-70
2022/01/10 04:08:19;;;;;;;40.58;15.45;;;1.10;99.90;;;;;;5090650;28;20042;-70
2022/01/10 04:10:46;;;;;;;48.33;16.98;;;;;;;;;;5088471;28;20471;-70
2022/01/10 04:13:12;;;;;;;44.65;15.40;;;0.90;99.90;;;;;;5087776;28;20047;-70
2022/01/10 04:15:37;;;;;;;49.03;17.10;;;1.00;99.90;;;;;;5068004;28;20441;-70
2022/01/10 04:18:03;;;;;;;41.22;14.93;;;1.20;99.90;;;;;;5054467;28;20035;-70
2022/01/10 04:20:29;;;;;;;39.25;15.68;;;1.00;99.90;;;;;;5081409;28;20035;-70
2022/01/10 04:22:55;;;;;;;41.85;16.90;;;0.80;99.90;;;;;;5089606;28;20427;-70
2022/01/10 04:25:21;;;;;;;53.00;16.95;;;1.20;99.90;;;;;;5091650;28;20036;-70
2022/01/10 04:27:46;;;;;;;55.22;18.33;;;0.90;99.90;;;;;;5072657;28;20081;-70
2022/01/10 04:30:12;;;;;;;52.40;18.42;;;1.20;99.90;;;;;;5053533;28;20430;-71
2022/01/10 04:32:39;;;;;;;47.67;17.83;;;;;;;;;;5085539;28;20047;-70
2022/01/10 04:35:06;;;;;;;43.35;17.35;;;;;;;;;;5086382;28;20042;-70
2022/01/10 04:37:32;;;;;;;51.40;16.23;;;1.10;99.90;;;;;;5084497;28;20036;-70
2022/01/10 04:39:57;;;;;;;40.10;18.45;;;1.00;99.90;;;;;;5071386;28;20036;-70
2022/01/10 04:42:23;;;;;;;51.65;18.10;;;1.00;99.90;;;;;;5087242;28;20035;-70
2022/01/10 04:44:49;;;;;;;46.10;16.73;;;0.90;99.90;;;;;;5081438;28;20039;-70
2022/01/10 04:47:15;;;;;;;38.95;16.20;;;1.20;99.90;;;;;;5066442;28;20039;-70
2022/01/10 04:52:29;;;;;;;48.78;19.48;;;1.00;99.90;;;;;;5082887;28;20116;-70
2022/01/10 04:54:55;;;;;;;40.83;17.67;;;0.80;99.90;;;;;;5062444;28;20044;-70
2022/01/10 04:57:21;;;;;;;48.75;22.30;;;0.90;99.90;;;;;;5079191;28;20052;-70
2022/01/10 04:59:46;;;;;;;48.72;23.17;;;0.90;99.90;;;;;;5081956;28;20495;-70
2022/01/10 05:02:12;;;;;;;46.58;21.90;;;0.90;99.90;;;;;;5067565;28;20032;-70
2022/01/10 05:04:38;;;;;;;51.67;23.70;;;0.80;99.90;;;;;;5082224;28;20035;-70
2022/01/10 05:07:04;;;;;;;52.38;21.83;;;1.10;99.90;;;;;;5082213;28;20040;-70
2022/01/10 05:09:30;;;;;;;48.97;20.90;;;0.90;99.90;;;;;;5076211;28;20040;-70
2022/01/10 05:11:56;;;;;;;54.17;21.48;;;0.80;99.90;;;;;;5082621;28;20047;-70
2022/01/10 05:14:22;;;;;;;50.00;20.90;;;0.70;99.90;;;;;;5065545;28;20186;-70
2022/01/10 05:16:48;;;;;;;51.22;21.88;;;0.90;99.90;;;;;;5077007;28;20451;-70
2022/01/10 05:19:14;;;;;;;48.85;22.20;;;1.00;99.90;;;;;;5085764;28;20040;-70
2022/01/10 05:21:39;;;;;;;45.88;21.92;;;0.90;99.90;;;;;;5065954;28;20193;-70
2022/01/10 05:24:06;;;;;;;58.55;23.38;;;0.90;99.90;;;;;;5068386;28;20051;-70
2022/01/10 05:26:31;;;;;;;49.72;21.80;;;1.00;99.90;;;;;;5079516;28;20036;-70
2022/01/10 05:28:57;;;;;;;44.58;21.85;;;1.00;99.90;;;;;;5081787;28;20048;-70
2022/01/10 05:31:23;;;;;;;55.97;24.13;;;0.90;99.90;;;;;;5082990;28;20044;-70
2022/01/10 05:33:49;;;;;;;54.67;23.67;;;1.50;99.90;;;;;;5080769;28;20494;-70
2022/01/10 05:36:15;;;;;;;61.78;25.77;;;;;;;;;;5048657;28;20101;-70
2022/01/10 05:38:41;;;;;;;60.72;28.95;;;0.80;99.90;;;;;;5080128;28;20036;-70
2022/01/10 05:41:07;;;;;;;61.92;31.67;;;1.00;99.90;;;;;;5067019;28;20131;-70
2022/01/10 05:43:33;;;;;;;63.38;27.67;;;1.10;99.90;;;;;;5084107;28;20123;-70
2022/01/10 05:45:59;;;;;;;42.70;24.27;;;1.10;99.90;;;;;;5069261;28;20036;-70
2022/01/10 05:48:28;;;;;;;53.92;24.40;;;0.90;99.90;;;;;;5065762;28;20127;-70
2022/01/10 05:50:53;;;;;;;51.78;24.30;;;0.90;99.90;;;;;;5083220;28;20064;-70
2022/01/10 05:53:20;;;;;;;54.35;24.73;;;0.90;99.90;;;;;;5083171;28;20577;-70
2022/01/10 05:55:46;;;;;;;50.17;24.15;;;;;;;;;;5068846;28;20054;-69
2022/01/10 05:58:13;;;;;;;54.00;25.55;;;0.80;99.90;;;;;;5084921;28;20372;-70
2022/01/10 06:00:39;;;;;;;52.05;22.70;;;0.90;99.90;;;;;;5080905;28;20593;-70
2022/01/10 06:03:05;;;;;;;57.70;23.92;;;1.20;99.90;;;;;;5076870;28;20032;-70
2022/01/10 06:05:31;;;;;;;56.97;26.05;;;1.10;99.90;;;;;;5079889;28;20039;-70
2022/01/10 06:07:59;;;;;;;56.25;26.38;;;1.10;99.90;;;;;;5059656;28;20036;-70
2022/01/10 06:10:25;;;;;;;58.35;26.58;;;;;;;;;;5062233;28;20047;-70
2022/01/10 06:12:51;;;;;;;56.90;25.70;;;0.80;99.90;;;;;;5044795;28;20043;-69
2022/01/10 06:15:16;;;;;;;58.70;27.23;;;0.70;99.90;;;;;;5049618;28;20221;-70
2022/01/10 06:17:42;;;;;;;64.97;28.73;;;0.70;99.90;;;;;;5061710;28;20044;-70
2022/01/10 06:20:08;;;;;;;63.78;27.80;;;0.70;99.90;;;;;;5056392;28;20504;-70
2022/01/10 06:22:34;;;;;;;62.22;29.65;;;0.70;99.90;;;;;;5080796;28;20090;-70
2022/01/10 06:25:00;;;;;;;60.05;26.85;;;0.60;99.90;;;;;;5076268;28;20071;-70
2022/01/10 06:27:26;;;;;;;57.50;29.75;;;0.70;99.90;;;;;;5079470;28;20040;-69
2022/01/10 06:29:52;;;;;;;57.78;25.60;;;0.60;99.90;;;;;;5075522;28;20039;-70
2022/01/10 06:32:18;;;;;;;60.95;27.10;;;0.60;99.90;;;;;;5064279;28;20364;-70
2022/01/10 06:34:43;;;;;;;68.13;29.17;;;0.60;99.90;;;;;;5079883;28;20032;-70
2022/01/10 06:37:09;;;;;;;57.72;27.13;;;0.50;99.90;;;;;;5081582;28;20119;-70
2022/01/10 06:39:35;;;;;;;60.42;27.98;;;0.60;99.90;;;;;;5083178;28;20044;-70
2022/01/10 06:42:01;;;;;;;65.10;28.90;;;0.50;99.90;;;;;;5080475;28;20404;-70
2022/01/10 06:44:27;;;;;;;64.75;29.33;;;0.50;99.90;;;;;;5079616;28;20036;-69
2022/01/10 06:46:53;;;;;;;61.13;28.70;;;0.60;99.90;;;;;;5083969;28;20075;-70
2022/01/10 06:49:19;;;;;;;63.28;28.88;;;0.50;99.90;;;;;;5080988;28;20093;-70
2022/01/10 06:51:45;;;;;;;69.05;29.42;;;0.60;99.90;;;;;;5077479;28;20078;-69
2022/01/10 06:54:11;;;;;;;66.28;29.13;;;0.40;99.90;;;;;;5067822;28;20079;-70
2022/01/10 06:56:36;;;;;;;53.40;27.42;;;0.40;99.90;;;;;;5089461;28;20470;-70
2022/01/10 06:59:02;;;;;;;60.85;28.33;;;0.40;99.90;;;;;;5087241;28;20106;-70
2022/01/10 07:01:28;;;;;;;85.05;32.80;;;0.40;99.90;;;;;;5092234;28;20416;-70
2022/01/10 07:03:56;;;;;;;77.90;33.05;;;0.50;99.90;;;;;;5089878;28;20542;-69
2022/01/10 07:06:21;;;;;;;78.55;31.38;;;0.40;99.90;;;;;;5082971;28;20082;-69
2022/01/10 07:08:47;;;;;;;74.65;31.75;;;0.40;99.90;;;;;;5078514;28;20075;-70
2022/01/10 07:11:13;;;;;;;80.22;34.03;;;0.40;99.90;;;;;;5067321;28;20038;-70
2022/01/10 07:13:39;;;;;;;59.92;29.65;;;0.40;99.90;;;;;;5086816;28;20114;-70
2022/01/10 07:16:04;;;;;;;76.32;30.95;;;0.50;99.90;;;;;;5073270;28;20399;-69
2022/01/10 07:18:30;;;;;;;75.07;33.33;;;0.60;99.90;;;;;;5066050;28;20040;-69
2022/01/10 07:20:56;;;;;;;66.00;31.17;;;0.40;99.90;;;;;;5081996;28;20348;-69
2022/01/10 07:23:23;;;;;;;82.53;35.80;;;0.40;99.90;;;;;;5087263;28;20039;-70
2022/01/10 07:25:49;;;;;;;70.18;33.30;;;0.40;99.90;;;;;;5052428;28;20507;-70
2022/01/10 07:28:15;;;;;;;74.53;32.88;;;0.40;99.90;;;;;;5086786;28;20045;-69
2022/01/10 07:30:41;;;;;;;69.13;32.97;;;0.40;99.90;;;;;;5090580;28;20043;-70
2022/01/10 07:33:06;;;;;;;73.85;34.95;;;0.50;99.90;;;;;;5088160;28;20174;-70
2022/01/10 07:35:32;;;;;;;86.43;38.63;;;0.30;99.90;;;;;;5088766;28;20078;-69
2022/01/10 07:37:58;;;;;;;77.90;36.17;;;0.40;99.90;;;;;;5084452;28;20471;-69
2022/01/10 07:40:24;;;;;;;68.07;33.47;;;0.30;99.90;;;;;;5088893;28;20068;-68
2022/01/10 07:42:50;;;;;;;65.07;33.55;;;0.30;99.90;;;;;;5071840;28;20042;-69
2022/01/10 07:45:16;;;;;;;73.53;36.88;;;0.20;99.90;;;;;;5090819;28;20036;-69
2022/01/10 07:47:42;;;;;;;87.50;38.20;;;0.30;99.90;;;;;;5081927;28;20073;-69
2022/01/10 07:50:08;;;;;;;84.75;38.60;;;0.30;99.90;;;;;;5084952;28;20120;-69
2022/01/10 07:52:34;;;;;;;87.45;37.70;;;0.20;99.90;;;;;;5083613;28;20036;-69
2022/01/10 07:55:00;;;;;;;103.40;40.25;;;0.20;99.90;;;;;;5085149;28;20548;-69
2022/01/10 07:57:26;;;;;;;59.17;31.90;;;0.20;99.90;;;;;;5084986;28;20028;-69
2022/01/10 07:59:52;;;;;;;73.20;34.75;;;1.00;99.90;;;;;;5058880;28;20112;-69
2022/01/10 08:02:20;;;;;;;77.70;36.13;;;0.20;99.90;;;;;;5078927;28;20057;-69
2022/01/10 08:04:47;;;;;;;96.55;38.65;;;0.30;99.90;;;;;;5071040;28;20067;-69
2022/01/10 08:07:12;;;;;;;70.93;32.65;;;0.30;99.90;;;;;;5077963;28;20036;-69
2022/01/10 08:09:38;;;;;;;84.72;35.67;;;0.20;99.90;;;;;;5067016;28;20131;-70
2022/01/10 08:12:04;;;;;;;85.45;36.92;;;0.20;99.90;;;;;;5084921;28;20040;-69
2022/01/10 08:14:31;;;;;;;89.63;38.00;;;0.30;99.90;;;;;;5086859;28;20039;-69
2022/01/10 08:16:58;;;;;;;92.10;39.13;;;0.20;99.90;;;;;;5073997;28;20173;-69
2022/01/10 08:19:26;;;;;;;75.47;34.22;;;0.30;99.90;;;;;;5091889;28;20047;-69
2022/01/10 08:21:55;;;;;;;74.45;32.58;;;0.20;99.90;;;;;;5080132;28;20342;-69
2022/01/10 08:24:22;;;;;;;74.75;34.40;;;0.40;99.90;;;;;;5073393;28;20466;-69
2022/01/10 08:26:49;;;;;;;88.57;34.65;;;0.20;99.90;;;;;;5086612;28;20098;-69
2022/01/10 08:29:15;;;;;;;95.28;35.88;;;0.20;99.90;;;;;;5085695;28;20111;-69
2022/01/10 08:31:40;;;;;;;101.90;37.15;;;0.20;99.90;;;;;;5089232;28;20130;-69
2022/01/10 08:34:06;;;;;;;107.25;37.25;;;0.20;99.90;;;;;;5088605;28;20040;-69
2022/01/10 08:36:34;;;;;;;100.45;38.20;;;0.20;99.90;;;;;;5106358;28;20040;-69
2022/01/10 08:39:00;;;;;;;103.20;37.53;;;0.30;99.90;;;;;;5103146;28;20035;-69
2022/01/10 08:41:26;;;;;;;109.00;39.72;;;0.30;99.90;;;;;;5090474;28;20042;-69
2022/01/10 08:43:52;;;;;;;110.72;40.47;;;0.30;99.90;;;;;;5083896;28;20031;-69
2022/01/10 08:46:17;;;;;;;118.68;43.70;;;0.30;99.90;;;;;;5085940;28;20367;-69
2022/01/10 08:48:44;;;;;;;94.85;40.92;;;0.40;99.90;;;;;;5073665;28;20040;-69
2022/01/10 08:51:10;;;;;;;80.28;37.03;;;0.60;99.90;;;;;;5086562;28;20060;-69
2022/01/10 08:53:36;;;;;;;90.43;41.53;;;0.60;99.90;;;;;;5075082;28;20130;-69
2022/01/10 08:56:03;;;;;;;120.85;46.25;;;0.50;99.90;;;;;;5086533;28;20431;-69
2022/01/10 08:58:32;;;;;;;101.63;43.72;;;0.70;99.90;;;;;;5071553;28;20051;-69
2022/01/10 09:01:00;;;;;;;97.18;44.35;;;1.30;99.90;;;;;;5087814;28;20069;-69
2022/01/10 09:03:25;;;;;;;90.28;39.80;;;0.90;99.90;;;;;;5091164;28;20039;-70
2022/01/10 09:05:54;;;;;;;77.68;39.05;;;1.10;99.90;;;;;;5076703;28;20051;-69
2022/01/10 09:08:20;;;;;;;70.93;34.47;;;;;;;;;;5090539;28;20172;-69
2022/01/10 09:10:46;;;;;;;67.05;37.08;;;1.20;99.90;;;;;;5088975;28;20406;-70
2022/01/10 09:13:11;;;;;;;96.45;42.58;;;1.90;99.90;;;;;;5083652;28;20047;-70
2022/01/10 09:15:38;;;;;;;91.57;41.60;;;;;;;;;;5088027;28;20413;-70
2022/01/10 09:18:04;;;;;;;84.90;39.30;;;1.30;99.90;;;;;;5069661;28;20042;-70
2022/01/10 09:20:30;;;;;;;93.85;41.67;;;1.40;99.90;;;;;;5066908;28;20050;-70
2022/01/10 09:22:55;;;;;;;68.90;35.05;;;1.30;99.90;;;;;;5087537;28;20744;-69
2022/01/10 09:25:22;;;;;;;70.53;37.53;;;1.50;99.90;;;;;;5080398;28;20115;-69
2022/01/10 09:27:48;;;;;;;82.55;39.22;;;1.50;99.90;;;;;;5086761;28;20040;-68
2022/01/10 09:30:14;;;;;;;90.78;41.08;;;1.50;99.90;;;;;;5087504;28;20460;-70
2022/01/10 09:32:40;;;;;;;73.47;36.85;;;1.60;99.90;;;;;;5069537;28;20118;-69
2022/01/10 09:35:06;;;;;;;76.53;39.00;;;1.60;99.90;;;;;;5086238;28;20122;-69
2022/01/10 09:37:32;;;;;;;88.82;42.40;;;1.70;99.90;;;;;;5085074;28;20031;-69
2022/01/10 09:39:58;;;;;;;77.05;40.65;;;1.80;99.90;;;;;;5089032;28;20039;-69
2022/01/10 09:42:24;;;;;;;76.35;39.20;;;1.90;99.90;;;;;;5084053;28;20042;-69
2022/01/10 09:44:50;;;;;;;70.97;35.50;;;2.10;99.90;;;;;;5106757;28;20396;-69
2022/01/10 09:47:16;;;;;;;59.35;33.03;;;2.20;99.90;;;;;;5082041;28;20051;-69
2022/01/10 09:49:41;;;;;;;62.60;32.80;;;1.90;99.90;;;;;;5071145;28;20031;-69
2022/01/10 09:52:07;;;;;;;63.53;34.67;;;2.00;99.90;;;;;;5073708;28;20456;-69
2022/01/10 09:54:33;;;;;;;66.95;36.40;;;2.10;99.90;;;;;;5057390;28;20073;-69
2022/01/10 09:56:59;;;;;;;67.30;35.95;;;2.10;99.90;;;;;;5085219;28;20036;-69
2022/01/10 09:59:25;;;;;;;62.78;35.40;;;2.10;99.90;;;;;;5070169;28;20047;-69
2022/01/10 10:01:51;;;;;;;65.03;35.78;;;2.20;99.90;;;;;;5085402;28;20036;-69
2022/01/10 10:04:19;;;;;;;72.05;36.83;;;2.30;99.90;;;;;;5087577;28;20069;-69
2022/01/10 10:06:46;;;;;;;66.22;36.30;;;2.30;99.90;;;;;;5071574;28;20039;-69
2022/01/10 10:09:11;;;;;;;68.95;35.65;;;2.30;99.90;;;;;;5072650;28;20031;-69
2022/01/10 10:11:50;;;;;;;60.33;33.17;;;2.40;99.90;;;;;;5084005;28;20456;-70
2022/01/10 10:14:21;;;;;;;58.70;33.40;;;2.40;99.90;;;;;;5087363;28;20054;-69
2022/01/10 10:16:51;;;;;;;68.07;35.58;;;2.50;99.90;;;;;;5084535;28;20122;-69
2022/01/10 10:19:20;;;;;;;59.67;32.60;;;2.60;99.90;;;;;;5070747;28;20093;-69
2022/01/10 10:21:46;;;;;;;64.70;32.95;;;2.60;99.90;;;;;;5080114;28;20047;-69
2022/01/10 10:24:13;;;;;;;58.65;31.35;;;2.60;99.90;;;;;;5080316;28;20040;-69
2022/01/10 10:26:39;;;;;;;62.13;30.52;;;2.70;99.90;;;;;;5087594;28;20031;-69
2022/01/10 10:29:04;;;;;;;58.25;31.45;;;2.90;99.90;;;;;;5069873;28;20484;-69
2022/01/10 10:31:47;;;;;;;55.30;30.45;;;2.80;99.90;;;;;;5086120;28;20043;-69
2022/01/10 10:34:29;;;;;;;56.90;32.20;;;2.90;99.90;;;;;;5110064;27;20035;-69
2022/01/10 10:37:00;;;;;;;48.83;28.48;;;2.90;99.90;;;;;;5089328;28;20123;-69
2022/01/10 10:39:26;;;;;;;55.37;28.57;;;3.00;99.90;;;;;;5083585;28;20047;-69
2022/01/10 10:41:58;;;;;;;55.85;28.02;;;3.10;99.90;;;;;;5081515;28;20309;-70
2022/01/10 10:44:25;;;;;;;47.10;26.15;;;3.20;99.90;;;;;;5080044;28;20036;-70
2022/01/10 10:46:50;;;;;;;51.13;26.70;;;3.20;99.90;;;;;;5079272;28;20071;-70
2022/01/10 10:49:19;;;;;;;48.55;27.40;;;3.30;99.90;;;;;;5069818;28;20047;-70
2022/01/10 10:51:49;;;;;;;54.03;27.38;;;3.40;99.90;;;;;;5090717;28;20063;-70
2022/01/10 10:54:16;;;;;;;47.55;28.63;;;3.40;99.90;;;;;;5085088;28;20366;-70
2022/01/10 10:56:43;;;;;;;43.75;23.48;;;3.40;99.90;;;;;;5085912;28;20092;-70
2022/01/10 10:59:13;;;;;;;47.38;26.65;;;3.50;99.90;;;;;;5081518;28;20045;-70
2022/01/10 11:01:41;;;;;;;43.50;25.00;;;3.60;99.90;;;;;;5084259;28;20113;-70
2022/01/10 11:04:10;;;;;;;48.65;25.13;;;3.60;99.90;;;;;;5090355;28;20491;-70
2022/01/10 11:06:38;;;;;;;45.10;25.23;;;3.70;99.90;;;;;;5080323;28;20070;-70
2022/01/10 11:09:06;;;;;;;50.22;26.85;;;3.80;99.90;;;;;;5088683;28;20403;-70
2022/01/10 11:11:33;;;;;;;43.50;25.08;;;3.80;99.90;;;;;;5070313;28;20039;-70
2022/01/10 11:14:00;;;;;;;43.30;25.00;;;3.90;99.90;;;;;;5068629;28;20384;-70
2022/01/10 11:16:26;;;;;;;38.83;23.80;;;4.00;99.90;;;;;;5069145;28;20105;-70
2022/01/10 11:18:53;;;;;;;45.47;23.98;;;4.40;99.90;;;;;;5081920;28;20126;-70
2022/01/10 11:21:19;;;;;;;44.25;23.55;;;4.10;99.90;;;;;;5080643;28;20119;-70
2022/01/10 11:23:46;;;;;;;45.20;24.63;;;4.20;99.90;;;;;;5069308;28;20127;-70
2022/01/10 11:26:13;;;;;;;44.78;24.90;;;4.60;99.90;;;;;;5086192;28;20051;-70
2022/01/10 11:28:59;;;;;;;40.00;23.40;;;4.40;99.90;;;;;;5068546;28;20043;-70
2022/01/10 11:31:27;;;;;;;33.30;22.48;;;4.40;99.90;;;;;;5066666;28;20044;-70
2022/01/10 11:33:55;;;;;;;41.33;24.00;;;4.50;99.90;;;;;;5102634;28;21199;-70
2022/01/10 11:36:24;;;;;;;42.88;22.67;;;4.60;99.90;;;;;;5070653;28;20073;-70
2022/01/10 11:38:57;;;;;;;38.35;20.88;;;4.80;99.90;;;;;;5084985;28;20734;-70
2022/01/10 11:41:26;;;;;;;40.05;21.00;;;5.00;99.90;;;;;;5079686;28;20040;-69
2022/01/10 11:44:01;;;;;;;37.22;19.95;;;5.20;99.90;;;;;;5070861;28;20040;-69
2022/01/10 11:46:42;;;;;;;34.22;16.88;;;5.40;99.90;;;;;;5080919;28;20033;-69
2022/01/10 11:49:08;;;;;;;29.50;16.13;;;5.50;99.90;;;;;;5078395;28;20033;-70
2022/01/10 11:51:36;;;;;;;33.20;16.00;;;5.60;99.90;;;;;;5081679;28;20102;-70
2022/01/10 11:54:13;;;;;;;27.98;15.85;;;5.70;99.90;;;;;;5070066;28;20036;-70
2022/01/10 11:56:41;;;;;;;27.48;15.30;;;5.90;99.90;;;;;;5080789;28;20052;-71
2022/01/10 11:59:13;;;;;;;29.02;15.27;;;6.00;99.90;;;;;;5078604;28;20040;-70
2022/01/10 12:01:47;;;;;;;29.45;16.35;;;7.00;99.90;;;;;;5079191;28;20058;-70
2022/01/10 12:04:13;;;;;;;24.02;14.93;;;6.80;99.90;;;;;;5078968;28;20043;-70
2022/01/10 12:06:39;;;;;;;32.97;14.52;;;7.10;99.90;;;;;;5079859;28;20123;-70
2022/01/10 12:09:05;;;;;;;25.83;13.32;;;7.50;99.90;;;;;;5062071;28;20122;-70
2022/01/10 12:11:31;;;;;;;22.05;12.48;;;7.90;99.90;;;;;;5086144;28;20040;-70
2022/01/10 12:13:59;;;;;;;26.60;13.77;;;8.30;99.90;;;;;;5081710;28;20048;-70
2022/01/10 12:16:26;;;;;;;26.35;12.73;;;8.60;99.90;;;;;;5083657;28;20121;-70
2022/01/10 12:18:53;;;;;;;20.92;13.35;;;8.90;99.90;;;;;;5082008;28;20400;-70
2022/01/10 12:21:19;;;;;;;27.17;12.00;;;9.10;99.90;;;;;;5071656;28;20052;-70
2022/01/10 12:23:45;;;;;;;21.75;12.27;;;9.20;99.90;;;;;;5088882;28;20385;-71
2022/01/10 12:26:11;;;;;;;22.45;11.07;;;9.10;99.90;;;;;;5054064;28;20348;-70
2022/01/10 12:28:37;;;;;;;24.88;12.82;;;8.70;99.90;;;;;;5080968;28;20318;-70
2022/01/10 12:31:06;;;;;;;21.48;11.50;;;8.30;99.90;;;;;;5082450;28;20050;-70
2022/01/10 12:33:33;;;;;;;22.92;11.55;;;8.00;99.90;;;;;;5084197;28;20073;-70
2022/01/10 12:36:02;;;;;;;26.83;13.05;;;7.70;99.90;;;;;;5065800;28;20043;-70
2022/01/10 12:38:28;;;;;;;23.40;12.95;;;7.40;99.90;;;;;;5081774;28;20710;-70
2022/01/10 12:40:54;;;;;;;24.10;12.95;;;7.20;99.90;;;;;;5085769;28;20040;-70
2022/01/10 12:43:20;;;;;;;26.92;14.15;;;7.70;99.90;;;;;;5045537;28;20040;-70
2022/01/10 12:45:47;;;;;;;24.38;13.65;;;7.10;99.90;;;;;;5084053;28;20035;-70
2022/01/10 12:48:14;;;;;;;25.33;13.65;;;7.50;99.90;;;;;;5081739;28;20035;-70
2022/01/10 12:50:44;;;;;;;25.88;13.13;;;7.00;99.90;;;;;;5084732;28;20461;-70